createdAt,value
2022-12-04T00:00:45.051Z,4.47
2022-12-04T00:03:12.352Z,5.03
2022-12-04T00:05:39.738Z,4.43
2022-12-04T00:08:06.789Z,4.45
2022-12-04T00:10:33.754Z,4.00
2022-12-04T00:13:00.534Z,4.00
2022-12-04T00:15:27.432Z,4.15
2022-12-04T00:17:54.480Z,4.60
2022-12-04T00:20:22.960Z,3.80
2022-12-04T00:22:49.830Z,4.85
2022-12-04T00:25:16.976Z,3.90
2022-12-04T00:27:44.225Z,4.68
2022-12-04T00:30:11.554Z,4.43
2022-12-04T00:32:38.266Z,4.18
2022-12-04T00:35:05.527Z,4.10
2022-12-04T00:37:33.363Z,4.43
2022-12-04T00:40:00.142Z,4.07
2022-12-04T00:42:26.959Z,4.20
2022-12-04T00:44:53.827Z,4.15
2022-12-04T00:47:20.824Z,4.38
2022-12-04T00:49:47.615Z,4.15
2022-12-04T00:52:14.394Z,4.40
2022-12-04T00:54:41.166Z,4.22
2022-12-04T00:57:07.929Z,4.20
2022-12-04T00:59:34.795Z,4.00
2022-12-04T01:02:01.503Z,4.18
2022-12-04T01:04:28.376Z,3.88
2022-12-04T01:06:58.009Z,4.35
2022-12-04T01:09:27.129Z,4.93
2022-12-04T01:11:53.859Z,4.07
2022-12-04T01:14:20.583Z,4.00
2022-12-04T01:16:47.473Z,5.07
2022-12-04T01:19:14.289Z,4.30
2022-12-04T01:21:41.079Z,4.47
2022-12-04T01:24:08.822Z,4.93
2022-12-04T01:26:35.989Z,4.60
2022-12-04T01:29:03.493Z,4.78
2022-12-04T01:31:30.600Z,4.47
2022-12-04T01:33:57.489Z,5.22
2022-12-04T01:36:28.154Z,6.35
2022-12-04T01:38:56.189Z,4.47
2022-12-04T01:41:29.290Z,4.43
2022-12-04T01:44:08.319Z,4.40
2022-12-04T01:46:35.228Z,3.83
2022-12-04T01:49:03.637Z,3.92
2022-12-04T01:51:35.465Z,4.28
2022-12-04T01:54:08.846Z,3.65
2022-12-04T01:56:50.587Z,4.30
2022-12-04T01:59:21.755Z,4.30
2022-12-04T02:02:14.397Z,4.95
2022-12-04T02:04:42.639Z,4.10
2022-12-04T02:07:09.564Z,4.15
2022-12-04T02:09:39.323Z,3.28
2022-12-04T02:12:18.818Z,3.55
2022-12-04T02:15:02.625Z,3.78
2022-12-04T02:17:52.796Z,3.33
2022-12-04T02:20:40.975Z,4.28
2022-12-04T02:23:31.986Z,3.83
2022-12-04T02:26:29.851Z,5.25
2022-12-04T02:29:09.381Z,3.63
2022-12-04T02:32:13.176Z,4.95
2022-12-04T02:34:50.902Z,4.55
2022-12-04T02:37:24.157Z,4.07
2022-12-04T02:39:58.905Z,3.63
2022-12-04T02:42:58.171Z,3.65
2022-12-04T02:45:30.110Z,3.90
2022-12-04T02:47:59.808Z,4.18
2022-12-04T02:50:27.840Z,3.30
2022-12-04T02:53:00.526Z,4.18
2022-12-04T02:55:33.484Z,3.67
2022-12-04T02:58:06.745Z,3.45
2022-12-04T03:00:36.897Z,4.72
2022-12-04T03:03:13.099Z,3.85
2022-12-04T03:08:26.205Z,3.28
2022-12-04T03:10:56.766Z,3.25
2022-12-04T03:13:41.246Z,3.10
2022-12-04T03:16:16.281Z,3.80
2022-12-04T03:18:46.533Z,3.38
2022-12-04T03:21:25.176Z,3.70
2022-12-04T03:23:58.831Z,4.05
2022-12-04T03:26:39.982Z,3.80
2022-12-04T03:29:31.112Z,3.67
2022-12-04T03:32:06.274Z,3.25
2022-12-04T03:34:48.903Z,3.47
2022-12-04T03:37:19.831Z,3.92
2022-12-04T03:39:52.209Z,3.50
2022-12-04T03:42:26.821Z,5.03
2022-12-04T03:44:53.510Z,3.70
2022-12-04T03:47:39.124Z,3.80
2022-12-04T03:50:31.270Z,4.25
2022-12-04T03:53:20.499Z,3.28
2022-12-04T03:56:03.725Z,3.40
2022-12-04T03:58:32.803Z,3.58
2022-12-04T04:01:01.683Z,3.22
2022-12-04T04:03:34.020Z,3.08
2022-12-04T04:06:06.016Z,4.32
2022-12-04T04:08:38.924Z,3.28
2022-12-04T04:11:15.573Z,3.80
2022-12-04T04:14:12.238Z,4.47
2022-12-04T04:17:01.737Z,3.55
2022-12-04T04:19:51.078Z,4.55
2022-12-04T04:22:38.549Z,3.70
2022-12-04T04:25:12.165Z,3.58
2022-12-04T04:27:39.436Z,3.35
2022-12-04T04:30:07.895Z,3.58
2022-12-04T04:33:06.087Z,3.45
2022-12-04T04:35:46.590Z,3.97
2022-12-04T04:38:18.714Z,3.40
2022-12-04T04:40:59.071Z,3.50
2022-12-04T04:43:35.452Z,4.15
2022-12-04T04:46:07.743Z,3.70
2022-12-04T04:48:41.483Z,3.92
2022-12-04T04:51:09.572Z,3.30
2022-12-04T04:53:46.801Z,3.30
2022-12-04T04:56:14.306Z,3.67
2022-12-04T04:58:42.435Z,3.60
2022-12-04T05:01:22.632Z,3.70
2022-12-04T05:03:49.497Z,3.45
2022-12-04T05:06:16.249Z,3.40
2022-12-04T05:08:44.165Z,3.58
2022-12-04T05:11:13.379Z,3.45
2022-12-04T05:13:40.986Z,3.30
2022-12-04T05:16:11.520Z,3.45
2022-12-04T05:18:38.472Z,3.72
2022-12-04T05:21:15.863Z,3.65
2022-12-04T05:23:43.339Z,3.53
2022-12-04T05:26:10.213Z,3.10
2022-12-04T05:28:37.179Z,3.38
2022-12-04T05:31:04.339Z,3.05
2022-12-04T05:33:31.326Z,3.15
2022-12-04T05:35:59.854Z,3.20
2022-12-04T05:38:27.036Z,3.78
2022-12-04T05:40:53.867Z,3.55
2022-12-04T05:43:20.637Z,3.40
2022-12-04T05:45:47.390Z,4.18
2022-12-04T05:48:14.146Z,4.05
2022-12-04T05:50:40.981Z,4.35
2022-12-04T05:53:08.071Z,3.80
2022-12-04T05:55:34.828Z,4.22
2022-12-04T05:58:02.459Z,3.95
2022-12-04T06:00:29.721Z,3.83
2022-12-04T06:02:56.610Z,3.33
2022-12-04T06:05:23.445Z,4.90
2022-12-04T06:07:50.273Z,3.55
2022-12-04T06:10:17.202Z,3.42
2022-12-04T06:12:44.006Z,3.15
2022-12-04T06:15:11.201Z,3.60
2022-12-04T06:17:37.976Z,3.13
2022-12-04T06:20:11.280Z,3.65
2022-12-04T06:22:38.682Z,3.15
2022-12-04T06:25:05.808Z,3.63
2022-12-04T06:27:32.608Z,3.47
2022-12-04T06:29:59.717Z,3.85
2022-12-04T06:32:26.615Z,2.97
2022-12-04T06:34:54.602Z,3.20
2022-12-04T06:37:23.011Z,3.90
2022-12-04T06:39:50.117Z,3.55
2022-12-04T06:42:17.330Z,3.80
2022-12-04T06:44:44.091Z,4.07
2022-12-04T06:47:10.903Z,3.70
2022-12-04T06:49:37.713Z,4.55
2022-12-04T06:52:04.481Z,5.45
2022-12-04T06:54:31.280Z,6.65
2022-12-04T06:56:58.052Z,6.13
2022-12-04T06:59:25.268Z,5.88
2022-12-04T07:01:52.018Z,6.57
2022-12-04T07:04:19.268Z,6.65
2022-12-04T07:06:46.090Z,6.10
2022-12-04T07:09:17.668Z,5.28
2022-12-04T07:11:45.570Z,6.53
2022-12-04T07:14:13.363Z,4.72
2022-12-04T07:16:41.943Z,5.20
2022-12-04T07:19:13.807Z,5.15
2022-12-04T07:21:41.442Z,4.05
2022-12-04T07:24:08.666Z,4.35
2022-12-04T07:26:35.470Z,5.25
2022-12-04T07:29:02.210Z,3.70
2022-12-04T07:31:30.256Z,4.03
2022-12-04T07:33:58.115Z,4.95
2022-12-04T07:36:26.184Z,3.83
2022-12-04T07:38:54.391Z,4.10
2022-12-04T07:41:21.211Z,4.07
2022-12-04T07:43:48.030Z,3.65
2022-12-04T07:46:20.973Z,5.95
2022-12-04T07:48:47.855Z,5.80
2022-12-04T07:51:23.347Z,4.43
2022-12-04T07:53:53.031Z,4.65
2022-12-04T07:56:21.077Z,4.13
2022-12-04T07:58:48.306Z,4.00
2022-12-04T08:01:21.430Z,4.00
2022-12-04T08:03:50.622Z,4.30
2022-12-04T08:06:19.563Z,3.53
2022-12-04T08:08:47.307Z,3.53
2022-12-04T08:11:16.738Z,4.18
2022-12-04T08:13:44.152Z,4.30
2022-12-04T08:16:12.558Z,5.90
2022-12-04T08:18:40.291Z,5.47
2022-12-04T08:21:12.087Z,6.30
2022-12-04T08:23:40.804Z,8.50
2022-12-04T08:26:07.899Z,7.10
2022-12-04T08:28:35.608Z,7.07
2022-12-04T08:31:07.373Z,6.53
2022-12-04T08:33:35.177Z,6.47
2022-12-04T08:36:05.284Z,5.95
2022-12-04T08:38:32.013Z,5.68
2022-12-04T08:41:06.453Z,5.05
2022-12-04T08:43:33.521Z,5.47
2022-12-04T08:46:06.232Z,4.95
2022-12-04T08:48:33.957Z,4.32
2022-12-04T08:51:01.803Z,4.18
2022-12-04T08:53:29.120Z,4.82
2022-12-04T08:55:56.146Z,5.05
2022-12-04T08:58:23.513Z,5.97
2022-12-04T09:00:50.440Z,8.50
2022-12-04T09:03:19.677Z,5.18
2022-12-04T09:05:46.557Z,5.20
2022-12-04T09:08:15.418Z,5.70
2022-12-04T09:10:43.436Z,4.70
2022-12-04T09:13:10.651Z,4.10
2022-12-04T09:15:41.016Z,3.78
2022-12-04T09:18:09.155Z,4.28
2022-12-04T09:20:36.525Z,4.18
2022-12-04T09:23:05.471Z,3.45
2022-12-04T09:25:36.629Z,3.50
2022-12-04T09:28:04.921Z,3.47
2022-12-04T09:30:32.001Z,3.30
2022-12-04T09:32:59.089Z,3.13
2022-12-04T09:35:25.958Z,3.58
2022-12-04T09:37:52.874Z,3.10
2022-12-04T09:40:38.132Z,3.88
2022-12-04T09:43:11.004Z,4.03
2022-12-04T09:45:51.335Z,4.50
2022-12-04T09:48:22.195Z,4.20
2022-12-04T09:50:50.266Z,4.55
2022-12-04T09:53:26.749Z,4.07
2022-12-04T09:56:05.616Z,3.85
2022-12-04T09:58:49.106Z,3.85
2022-12-04T10:01:29.985Z,3.67
2022-12-04T10:04:02.673Z,3.20
2022-12-04T10:06:47.445Z,3.30
2022-12-04T10:09:25.232Z,3.58
2022-12-04T10:12:07.489Z,4.28
2022-12-04T10:14:49.531Z,4.30
2022-12-04T10:17:43.674Z,3.70
2022-12-04T10:20:27.585Z,3.25
2022-12-04T10:23:14.137Z,3.42
2022-12-04T10:25:42.277Z,3.13
2022-12-04T10:28:56.729Z,3.28
2022-12-04T10:31:27.952Z,3.45
2022-12-04T10:34:12.115Z,3.28
2022-12-04T10:36:41.360Z,4.45
2022-12-04T10:39:33.250Z,3.17
2022-12-04T10:42:22.158Z,4.22
2022-12-04T10:44:49.013Z,3.58
2022-12-04T10:47:15.957Z,4.38
2022-12-04T10:49:44.285Z,3.47
2022-12-04T10:52:13.686Z,3.92
2022-12-04T10:54:50.694Z,3.50
2022-12-04T10:57:18.190Z,3.30
2022-12-04T10:59:54.855Z,3.40
2022-12-04T11:02:25.749Z,3.25
2022-12-04T11:05:28.014Z,3.72
2022-12-04T11:07:55.965Z,3.13
2022-12-04T11:10:23.022Z,3.70
2022-12-04T11:13:02.550Z,3.70
2022-12-04T11:15:30.340Z,3.75
2022-12-04T11:18:08.652Z,3.45
2022-12-04T11:20:35.869Z,4.05
2022-12-04T11:23:03.248Z,4.25
2022-12-04T11:25:44.717Z,3.35
2022-12-04T11:28:40.724Z,3.22
2022-12-04T11:31:10.566Z,3.50
2022-12-04T11:33:55.775Z,3.53
2022-12-04T11:36:30.233Z,3.78
2022-12-04T11:39:12.537Z,3.47
2022-12-04T11:41:39.913Z,3.40
2022-12-04T11:44:20.197Z,4.05
2022-12-04T11:46:53.634Z,3.50
2022-12-04T11:49:23.043Z,3.70
2022-12-04T11:52:16.933Z,3.58
2022-12-04T11:55:03.393Z,4.53
2022-12-04T11:57:44.047Z,3.92
2022-12-04T12:00:22.823Z,5.18
2022-12-04T12:03:05.049Z,4.07
2022-12-04T12:06:12.406Z,3.30
2022-12-04T12:08:58.878Z,4.13
2022-12-04T12:11:58.742Z,5.28
2022-12-04T12:14:49.732Z,3.88
2022-12-04T12:17:46.835Z,4.15
2022-12-04T12:20:24.558Z,3.97
2022-12-04T12:23:08.052Z,4.50
2022-12-04T12:26:00.232Z,4.20
2022-12-04T12:28:48.295Z,3.75
2022-12-04T12:31:24.144Z,4.00
2022-12-04T12:34:03.401Z,4.50
2022-12-04T12:36:43.576Z,3.85
2022-12-04T12:39:19.035Z,3.80
2022-12-04T12:41:53.324Z,3.97
2022-12-04T12:44:24.015Z,4.10
2022-12-04T12:47:00.412Z,4.03
2022-12-04T12:49:36.290Z,3.88
2022-12-04T12:52:16.235Z,4.25
2022-12-04T12:54:51.948Z,4.43
2022-12-04T12:57:30.968Z,4.03
2022-12-04T13:00:03.866Z,4.22
2022-12-04T13:03:02.128Z,4.13
2022-12-04T13:05:46.646Z,4.03
2022-12-04T13:08:25.158Z,4.22
2022-12-04T13:11:05.701Z,4.07
2022-12-04T13:13:35.996Z,4.20
2022-12-04T13:16:10.596Z,4.50
2022-12-04T13:18:54.863Z,3.90
2022-12-04T13:21:32.658Z,4.13
2022-12-04T13:24:25.814Z,4.45
2022-12-04T13:27:03.446Z,4.35
2022-12-04T13:30:14.317Z,4.35
2022-12-04T13:33:09.234Z,4.60
2022-12-04T13:35:42.124Z,4.45
2022-12-04T13:38:31.136Z,4.75
2022-12-04T13:41:02.520Z,4.43
2022-12-04T13:43:41.677Z,4.93
2022-12-04T13:46:36.141Z,5.38
2022-12-04T13:49:22.399Z,4.75
2022-12-04T13:51:49.600Z,5.00
2022-12-04T13:54:21.843Z,4.75
2022-12-04T13:56:51.982Z,5.40
2022-12-04T13:59:23.497Z,5.15
2022-12-04T14:01:53.815Z,5.25
2022-12-04T14:04:23.637Z,5.22
2022-12-04T14:06:51.886Z,5.63
2022-12-04T14:09:27.341Z,5.32
2022-12-04T14:12:03.891Z,5.68
2022-12-04T14:14:55.734Z,5.50
2022-12-04T14:17:30.273Z,5.38
2022-12-04T14:20:07.323Z,5.35
2022-12-04T14:22:37.546Z,5.07
2022-12-04T14:25:34.395Z,5.88
2022-12-04T14:28:26.344Z,5.10
2022-12-04T14:31:18.107Z,5.90
2022-12-04T14:33:53.002Z,5.22
2022-12-04T14:36:31.753Z,5.13
2022-12-04T14:39:33.030Z,5.00
2022-12-04T14:42:23.528Z,4.97
2022-12-04T14:44:57.130Z,5.25
2022-12-04T14:47:48.573Z,5.13
2022-12-04T14:50:28.042Z,4.53
2022-12-04T14:53:12.591Z,5.10
2022-12-04T14:56:07.421Z,5.93
2022-12-04T14:58:38.443Z,5.35
2022-12-04T15:01:22.703Z,5.32
2022-12-04T15:03:56.020Z,5.78
2022-12-04T15:06:27.248Z,4.32
2022-12-04T15:09:19.000Z,5.32
2022-12-04T15:12:12.585Z,4.95
2022-12-04T15:14:44.066Z,5.30
2022-12-04T15:17:12.378Z,5.10
2022-12-04T15:19:39.825Z,5.53
2022-12-04T15:22:33.095Z,5.25
2022-12-04T15:25:00.300Z,5.40
2022-12-04T15:27:32.320Z,5.38
2022-12-04T15:30:01.574Z,6.05
2022-12-04T15:32:30.971Z,4.85
2022-12-04T15:35:12.798Z,4.97
2022-12-04T15:37:40.917Z,434.58
2022-12-04T15:40:11.797Z,362.30
2022-12-04T15:42:38.796Z,307.02
2022-12-04T15:45:08.463Z,289.25
2022-12-04T15:47:53.465Z,241.40
2022-12-04T15:50:23.841Z,201.52
2022-12-04T15:53:05.486Z,150.07
2022-12-04T15:55:52.653Z,117.50
2022-12-04T16:00:46.691Z,71.45
2022-12-04T16:03:32.911Z,63.47
2022-12-04T16:06:17.445Z,46.60
2022-12-04T16:08:46.844Z,34.10
2022-12-04T16:11:22.717Z,30.33
2022-12-04T16:14:11.034Z,18.90
2022-12-04T16:16:43.683Z,19.55
2022-12-04T16:19:36.744Z,11.57
2022-12-04T16:22:12.850Z,10.65
2022-12-04T16:24:40.031Z,9.63
2022-12-04T16:27:20.008Z,10.45
2022-12-04T16:29:50.678Z,7.15
2022-12-04T16:32:20.060Z,7.53
2022-12-04T16:34:50.056Z,5.85
2022-12-04T16:37:21.905Z,7.30
2022-12-04T16:39:48.942Z,7.85
2022-12-04T16:42:22.196Z,7.00
2022-12-04T16:44:49.194Z,6.65
2022-12-04T16:47:16.649Z,6.20
2022-12-04T16:49:44.778Z,5.70
2022-12-04T16:52:12.594Z,7.35
2022-12-04T16:54:39.996Z,6.72
2022-12-04T16:57:10.002Z,6.38
2022-12-04T16:59:37.274Z,6.90
2022-12-04T17:02:14.932Z,5.85
2022-12-04T17:04:41.772Z,6.10
2022-12-04T17:07:08.672Z,6.43
2022-12-04T17:09:35.440Z,6.28
2022-12-04T17:12:02.297Z,5.65
2022-12-04T17:14:29.268Z,5.40
2022-12-04T17:16:58.631Z,6.38
2022-12-04T17:19:25.418Z,6.07
2022-12-04T17:21:52.313Z,6.07
2022-12-04T17:24:19.053Z,6.07
2022-12-04T17:26:46.826Z,6.03
2022-12-04T17:29:13.609Z,6.97
2022-12-04T17:31:40.390Z,6.32
2022-12-04T17:34:07.168Z,6.47
2022-12-04T17:36:34.770Z,6.53
2022-12-04T17:39:02.315Z,7.60
2022-12-04T17:41:29.800Z,6.72
2022-12-04T17:43:59.579Z,6.85
2022-12-04T17:46:26.418Z,6.50
2022-12-04T17:49:03.874Z,7.10
2022-12-04T17:51:35.695Z,6.25
2022-12-04T17:54:02.921Z,7.05
2022-12-04T17:56:30.337Z,6.93
2022-12-04T17:58:57.756Z,7.15
2022-12-04T18:01:27.313Z,7.65
2022-12-04T18:03:59.202Z,7.55
2022-12-04T18:06:32.627Z,7.28
2022-12-04T18:09:00.143Z,7.55
2022-12-04T18:11:29.443Z,8.43
2022-12-04T18:14:00.658Z,6.80
2022-12-04T18:16:29.671Z,7.32
2022-12-04T18:18:58.136Z,7.15
2022-12-04T18:21:25.463Z,7.55
2022-12-04T18:23:55.703Z,7.72
2022-12-04T18:26:26.876Z,7.65
2022-12-04T18:28:57.262Z,7.15
2022-12-04T18:31:24.316Z,8.27
2022-12-04T18:33:51.243Z,7.22
2022-12-04T18:36:29.564Z,7.72
2022-12-04T18:39:02.065Z,7.72
2022-12-04T18:41:30.196Z,7.28
2022-12-04T18:43:57.967Z,7.95
2022-12-04T18:46:25.632Z,7.00
2022-12-04T18:48:54.457Z,6.95
2022-12-04T18:51:28.685Z,6.85
2022-12-04T18:53:59.839Z,7.00
2022-12-04T18:56:27.976Z,7.68
2022-12-04T18:59:02.416Z,7.53
2022-12-04T19:01:31.516Z,7.57
2022-12-04T19:04:02.966Z,8.10
2022-12-04T19:06:33.106Z,7.45
2022-12-04T19:09:04.281Z,6.80
2022-12-04T19:11:31.894Z,8.05
2022-12-04T19:13:59.659Z,7.32
2022-12-04T19:16:26.941Z,7.18
2022-12-04T19:18:55.735Z,7.25
2022-12-04T19:21:23.418Z,8.98
2022-12-04T19:23:54.996Z,6.28
2022-12-04T19:26:22.168Z,7.18
2022-12-04T19:28:51.659Z,7.07
2022-12-04T19:31:20.569Z,7.35
2022-12-04T19:33:48.160Z,6.97
2022-12-04T19:36:17.885Z,7.53
2022-12-04T19:38:45.554Z,7.95
2022-12-04T19:41:21.556Z,7.47
2022-12-04T19:43:51.300Z,7.65
2022-12-04T19:46:22.885Z,7.85
2022-12-04T19:48:50.676Z,7.65
2022-12-04T19:51:21.142Z,8.20
2022-12-04T19:53:48.874Z,7.93
2022-12-04T19:56:21.330Z,7.70
2022-12-04T19:58:48.422Z,8.18
2022-12-04T20:01:17.740Z,8.13
2022-12-04T20:03:45.570Z,7.68
2022-12-04T20:06:15.604Z,7.80
2022-12-04T20:08:43.801Z,7.70
2022-12-04T20:11:13.408Z,7.85
2022-12-04T20:13:42.505Z,8.13
2022-12-04T20:16:12.378Z,8.05
2022-12-04T20:18:41.141Z,8.35
2022-12-04T20:21:13.074Z,8.07
2022-12-04T20:23:49.839Z,8.27
2022-12-04T20:26:22.476Z,8.23
2022-12-04T20:28:55.016Z,7.85
2022-12-04T20:31:25.596Z,8.55
2022-12-04T20:33:59.136Z,8.68
2022-12-04T20:36:30.917Z,7.93
2022-12-04T20:39:00.749Z,7.75
2022-12-04T20:41:30.835Z,7.95
2022-12-04T20:44:01.823Z,8.80
2022-12-04T20:46:34.737Z,9.10
2022-12-04T20:49:05.741Z,7.78
2022-12-04T20:51:39.634Z,7.70
2022-12-04T20:54:08.240Z,8.57
2022-12-04T20:56:37.795Z,7.15
2022-12-04T20:59:11.765Z,8.18
2022-12-04T21:01:39.453Z,7.70
2022-12-04T21:04:07.119Z,7.90
2022-12-04T21:06:38.012Z,7.85
2022-12-04T21:09:16.083Z,7.45
2022-12-04T21:11:54.966Z,7.72
2022-12-04T21:14:43.633Z,8.05
2022-12-04T21:17:16.579Z,8.43
2022-12-04T21:19:44.134Z,7.72
2022-12-04T21:22:10.979Z,7.03
2022-12-04T21:24:39.172Z,8.57
2022-12-04T21:27:07.839Z,8.13
2022-12-04T21:29:36.301Z,8.35
2022-12-04T21:32:03.975Z,7.60
2022-12-04T21:34:30.809Z,7.28
2022-12-04T21:36:57.969Z,8.10
2022-12-04T21:39:25.636Z,8.38
2022-12-04T21:42:11.419Z,7.97
2022-12-04T21:44:38.365Z,7.47
2022-12-04T21:47:06.174Z,7.90
2022-12-04T21:49:33.020Z,7.72
2022-12-04T21:52:01.020Z,8.10
2022-12-04T21:54:28.409Z,8.57
2022-12-04T21:56:56.568Z,7.72
2022-12-04T21:59:24.806Z,8.02
2022-12-04T22:01:52.464Z,7.75
2022-12-04T22:04:20.179Z,7.57
2022-12-04T22:06:47.368Z,7.30
2022-12-04T22:09:14.371Z,8.00
2022-12-04T22:11:43.029Z,8.95
2022-12-04T22:14:11.853Z,8.13
2022-12-04T22:16:42.621Z,7.90
2022-12-04T22:19:13.288Z,8.13
2022-12-04T22:21:41.666Z,7.85
2022-12-04T22:24:10.364Z,8.18
2022-12-04T22:26:37.641Z,7.97
2022-12-04T22:29:20.794Z,8.25
2022-12-04T22:31:52.087Z,7.72
2022-12-04T22:34:18.857Z,7.68
2022-12-04T22:36:45.639Z,7.88
2022-12-04T22:39:12.649Z,8.52
2022-12-04T22:41:39.571Z,8.18
2022-12-04T22:44:06.370Z,7.55
2022-12-04T22:46:33.663Z,7.68
2022-12-04T22:49:00.667Z,7.55
2022-12-04T22:51:28.213Z,8.07
2022-12-04T22:53:57.432Z,7.60
2022-12-04T22:56:27.114Z,7.00
2022-12-04T22:58:54.569Z,8.02
2022-12-04T23:01:28.535Z,7.90
2022-12-04T23:03:55.807Z,7.70
2022-12-04T23:06:24.357Z,7.10
2022-12-04T23:08:56.233Z,7.47
2022-12-04T23:11:25.370Z,8.43
2022-12-04T23:13:54.800Z,7.80
2022-12-04T23:16:24.099Z,8.13
2022-12-04T23:18:51.436Z,7.40
2022-12-04T23:21:20.856Z,8.60
2022-12-04T23:23:49.440Z,7.28
2022-12-04T23:26:20.187Z,8.23
2022-12-04T23:28:47.085Z,8.13
2022-12-04T23:31:14.125Z,7.45
2022-12-04T23:33:41.569Z,7.70
2022-12-04T23:36:10.588Z,7.32
2022-12-04T23:38:38.998Z,7.97
2022-12-04T23:41:07.556Z,7.53
2022-12-04T23:43:35.309Z,7.60
2022-12-04T23:46:08.931Z,7.90
2022-12-04T23:48:38.798Z,8.77
2022-12-04T23:51:05.926Z,8.00
2022-12-04T23:53:32.690Z,7.63
2022-12-04T23:56:06.454Z,7.40
2022-12-04T23:58:33.921Z,7.22
